< < Back
Terminal Aerodrome Forecast


Current Version              Previous Versions:   1  2  3  4  5  6  7  8  9  

Terminal Aerodrome Forecast

492
FTUS42 KFFC 250952 AAB
TAFATL
TAF AMD
KATL 250952Z 2510/2612 22003KT P6SM SCT100
     FM251500 26004KT P6SM SCT035
     FM251800 24006KT P6SM VCSH SCT050 PROB30 2519/2523 6SM -TSRA
      BKN040CB
     FM260200 24003KT P6SM SCT100=

Latest METAR

926
SAUS70 KWBC 251000 RRC
MTRATL
METAR KATL 250952Z 00000KT 10SM FEW060 FEW100 25/21 A3007 RMK AO2 SLP169
T02500211


USA.gov is the U.S. government's official web portal to all federal, state and local government web resources and services.